createdAt,value
2019-01-30T00:01:16.913Z,-3.50
2019-01-30T00:03:44.380Z,-3.50
2019-01-30T00:06:11.851Z,-3.40
2019-01-30T00:08:39.365Z,-3.50
2019-01-30T00:11:06.835Z,-3.50
2019-01-30T00:13:34.294Z,-3.40
2019-01-30T00:16:01.805Z,-3.40
2019-01-30T00:18:29.274Z,-3.50
2019-01-30T00:20:56.761Z,-3.50
2019-01-30T00:23:24.429Z,-3.50
2019-01-30T00:25:51.896Z,-3.60
2019-01-30T00:28:19.398Z,-3.60
2019-01-30T00:30:46.888Z,-3.60
2019-01-30T00:33:14.349Z,-3.60
2019-01-30T00:35:41.805Z,-3.60
2019-01-30T00:38:09.281Z,-3.70
2019-01-30T00:40:36.822Z,-3.30
2019-01-30T00:43:04.391Z,-3.70
2019-01-30T00:45:31.800Z,-3.60
2019-01-30T00:47:59.358Z,-3.70
2019-01-30T00:50:26.818Z,-3.70
2019-01-30T00:52:54.287Z,-3.70
2019-01-30T00:55:21.917Z,-3.70
2019-01-30T00:57:49.384Z,-3.70
2019-01-30T01:00:18.443Z,-3.70
2019-01-30T01:02:46.045Z,-3.70
2019-01-30T01:05:13.919Z,-3.70
2019-01-30T01:07:41.777Z,-3.70
2019-01-30T01:10:10.810Z,-3.70
2019-01-30T01:12:38.286Z,-3.70
2019-01-30T01:15:08.006Z,-3.70
2019-01-30T01:17:35.467Z,-3.70
2019-01-30T01:20:04.647Z,-3.70
2019-01-30T01:22:32.127Z,-3.70
2019-01-30T01:24:59.673Z,-3.70
2019-01-30T01:27:27.149Z,-3.70
2019-01-30T01:29:54.639Z,-3.70
2019-01-30T01:32:22.124Z,-3.80
2019-01-30T01:34:49.578Z,-3.80
2019-01-30T01:37:17.059Z,-3.90
2019-01-30T01:39:44.536Z,-3.90
2019-01-30T01:42:12.405Z,-3.90
2019-01-30T01:44:39.894Z,-4.00
2019-01-30T01:47:07.376Z,-4.00
2019-01-30T01:49:34.831Z,-4.00
2019-01-30T01:52:02.285Z,-4.00
2019-01-30T01:54:29.810Z,-4.00
2019-01-30T01:56:57.303Z,-4.00
2019-01-30T01:59:24.788Z,-4.10
2019-01-30T02:01:52.280Z,-4.10
2019-01-30T02:04:19.742Z,-4.10
2019-01-30T02:06:47.225Z,-4.20
2019-01-30T02:09:14.706Z,-4.20
2019-01-30T02:11:42.209Z,-4.20
2019-01-30T02:14:09.673Z,-4.30
2019-01-30T02:16:37.131Z,-4.30
2019-01-30T02:19:04.665Z,-4.20
2019-01-30T02:21:32.145Z,-4.20
2019-01-30T02:23:59.664Z,-4.20
2019-01-30T02:26:27.166Z,-4.10
2019-01-30T02:28:54.630Z,-4.20
2019-01-30T02:31:22.101Z,-4.20
2019-01-30T02:33:49.623Z,-4.20
2019-01-30T02:36:17.083Z,-4.10
2019-01-30T02:38:44.543Z,-4.10
2019-01-30T02:41:12.039Z,-4.10
2019-01-30T02:43:39.550Z,-4.10
2019-01-30T02:46:07.043Z,-4.10
2019-01-30T02:48:34.570Z,-4.20
2019-01-30T02:51:02.162Z,-4.20
2019-01-30T02:53:29.635Z,-3.00
2019-01-30T02:55:57.081Z,-4.30
2019-01-30T02:58:24.547Z,-4.30
2019-01-30T03:00:58.967Z,-4.40
2019-01-30T03:03:21.516Z,-4.40
2019-01-30T03:05:48.977Z,-4.50
2019-01-30T03:08:16.464Z,-4.50
2019-01-30T03:10:43.906Z,-4.50
2019-01-30T03:13:11.450Z,-4.60
2019-01-30T03:15:38.903Z,-4.60
2019-01-30T03:18:06.402Z,-4.60
2019-01-30T03:20:33.926Z,-4.60
2019-01-30T03:23:01.379Z,-4.50
2019-01-30T03:25:28.846Z,-4.50
2019-01-30T03:27:56.352Z,-4.50
2019-01-30T03:30:26.307Z,-4.60
2019-01-30T03:32:53.884Z,-4.50
2019-01-30T03:35:21.323Z,-4.50
2019-01-30T03:37:48.811Z,-4.50
2019-01-30T03:40:17.297Z,-4.50
2019-01-30T03:42:44.801Z,-4.50
2019-01-30T03:45:13.138Z,-4.50
2019-01-30T03:47:40.771Z,-4.50
2019-01-30T03:50:09.295Z,-4.50
2019-01-30T03:52:36.848Z,-4.50
2019-01-30T03:55:05.040Z,-4.50
2019-01-30T03:57:32.505Z,-4.50
2019-01-30T04:00:00.001Z,-4.60
2019-01-30T04:02:27.474Z,-4.70
2019-01-30T04:04:54.961Z,-4.70
2019-01-30T04:07:22.431Z,-4.80
2019-01-30T04:09:49.912Z,-4.80
2019-01-30T04:12:17.419Z,-4.80
2019-01-30T04:14:44.880Z,-4.90
2019-01-30T04:17:12.342Z,-4.50
2019-01-30T04:19:39.838Z,-4.80
2019-01-30T04:22:07.347Z,-4.90
2019-01-30T04:24:34.817Z,-4.90
2019-01-30T04:27:02.304Z,-4.90
2019-01-30T04:29:29.797Z,-4.80
2019-01-30T04:31:57.283Z,-4.80
2019-01-30T04:34:24.832Z,-4.80
2019-01-30T04:36:52.347Z,-4.70
2019-01-30T04:39:19.818Z,-4.70
2019-01-30T04:41:47.302Z,-4.70
2019-01-30T04:44:14.799Z,-4.70
2019-01-30T04:46:42.251Z,-4.60
2019-01-30T04:49:09.769Z,-4.70
2019-01-30T04:51:37.214Z,-4.70
2019-01-30T04:54:04.675Z,-4.70
2019-01-30T04:56:32.172Z,-4.70
2019-01-30T04:58:59.643Z,-4.70
2019-01-30T05:01:27.203Z,-4.70
2019-01-30T05:03:54.717Z,-4.70
2019-01-30T05:06:22.205Z,-4.70
2019-01-30T05:08:49.688Z,-4.70
2019-01-30T05:11:17.190Z,-4.70
2019-01-30T05:13:44.725Z,-4.80
2019-01-30T05:16:12.207Z,-4.80
2019-01-30T05:18:39.737Z,-4.80
2019-01-30T05:21:07.228Z,-4.80
2019-01-30T05:23:34.679Z,-4.80
2019-01-30T05:26:02.198Z,-4.80
2019-01-30T05:28:29.673Z,-4.90
2019-01-30T05:30:57.179Z,-4.80
2019-01-30T05:33:24.691Z,-4.80
2019-01-30T05:35:52.397Z,-4.80
2019-01-30T05:38:22.651Z,-4.80
2019-01-30T05:40:50.134Z,-4.80
2019-01-30T05:43:17.665Z,-4.80
2019-01-30T05:45:45.149Z,-4.80
2019-01-30T05:48:12.659Z,-4.80
2019-01-30T05:50:40.144Z,-4.80
2019-01-30T05:53:07.643Z,-4.80
2019-01-30T05:55:38.131Z,-4.90
2019-01-30T05:58:05.600Z,-4.80
2019-01-30T06:00:51.305Z,-5.00
2019-01-30T06:03:18.781Z,-5.00
2019-01-30T06:05:46.657Z,-5.00
2019-01-30T06:08:14.123Z,-5.10
2019-01-30T06:10:41.917Z,-5.00
2019-01-30T06:13:09.500Z,-5.10
2019-01-30T06:15:36.959Z,-5.10
2019-01-30T06:18:04.544Z,-5.10
2019-01-30T06:20:32.023Z,-5.10
2019-01-30T06:23:01.712Z,-5.10
2019-01-30T06:25:28.796Z,-5.10
2019-01-30T06:27:56.242Z,-5.10
2019-01-30T06:30:23.882Z,-5.10
2019-01-30T06:32:51.472Z,-5.10
2019-01-30T06:35:19.103Z,-5.10
2019-01-30T06:37:46.635Z,-3.60
2019-01-30T06:40:19.236Z,-5.00
2019-01-30T06:42:46.758Z,-5.00
2019-01-30T06:45:14.261Z,-5.00
2019-01-30T06:47:41.796Z,-4.90
2019-01-30T06:50:10.385Z,-4.90
2019-01-30T06:52:37.876Z,-4.80
2019-01-30T06:55:05.692Z,-4.80
2019-01-30T06:57:33.281Z,-4.70
2019-01-30T07:00:00.758Z,-4.70
2019-01-30T07:02:32.355Z,-4.30
2019-01-30T07:04:57.791Z,-4.50
2019-01-30T07:07:25.261Z,-4.50
2019-01-30T07:09:52.749Z,-4.40
2019-01-30T07:12:20.254Z,-4.30
2019-01-30T07:14:47.735Z,-4.20
2019-01-30T07:17:15.216Z,-4.10
2019-01-30T07:19:42.748Z,-4.00
2019-01-30T07:22:10.226Z,-3.90
2019-01-30T07:24:37.710Z,-3.90
2019-01-30T07:27:05.210Z,-3.80
2019-01-30T07:29:32.693Z,-3.80
2019-01-30T07:32:00.229Z,-3.70
2019-01-30T07:34:27.681Z,-3.70
2019-01-30T07:36:55.196Z,-3.60
2019-01-30T07:39:22.690Z,-3.60
2019-01-30T07:41:50.234Z,-3.50
2019-01-30T07:44:17.737Z,-3.50
2019-01-30T07:46:45.271Z,-3.40
2019-01-30T07:49:12.730Z,-3.40
2019-01-30T07:51:40.253Z,-3.30
2019-01-30T07:54:07.724Z,-3.20
2019-01-30T07:56:35.192Z,-2.70
2019-01-30T07:59:02.859Z,-3.10
2019-01-30T08:01:30.570Z,-3.10
2019-01-30T08:03:58.049Z,-3.00
2019-01-30T08:06:25.513Z,-2.90
2019-01-30T08:08:53.068Z,-2.90
2019-01-30T08:11:20.546Z,-2.90
2019-01-30T08:13:47.995Z,-2.80
2019-01-30T08:16:15.976Z,-2.70
2019-01-30T08:18:43.491Z,-2.70
2019-01-30T08:21:11.095Z,-2.70
2019-01-30T08:23:38.975Z,-2.60
2019-01-30T08:26:06.831Z,-2.60
2019-01-30T08:28:34.515Z,-2.50
2019-01-30T08:31:01.953Z,-2.50
2019-01-30T08:33:29.398Z,-2.40
2019-01-30T08:35:56.933Z,-2.30
2019-01-30T08:38:24.423Z,-2.30
2019-01-30T08:40:51.904Z,-2.20
2019-01-30T08:43:19.434Z,-2.20
2019-01-30T08:45:46.913Z,-2.20
2019-01-30T08:48:14.396Z,-2.20
2019-01-30T08:50:41.922Z,-2.10
2019-01-30T08:53:09.430Z,-2.10
2019-01-30T08:55:36.909Z,-2.10
2019-01-30T08:58:04.426Z,-2.10
2019-01-30T09:00:31.891Z,-2.00
2019-01-30T09:02:59.417Z,-2.00
2019-01-30T09:05:26.990Z,-2.00
2019-01-30T09:07:54.798Z,-2.00
2019-01-30T09:10:23.230Z,-1.50
2019-01-30T09:12:50.761Z,-2.00
2019-01-30T09:15:19.884Z,-2.00
2019-01-30T09:17:47.478Z,-1.90
2019-01-30T09:20:16.837Z,-1.90
2019-01-30T09:22:44.348Z,-1.80
2019-01-30T09:25:14.479Z,-1.70
2019-01-30T09:27:41.978Z,-1.70
2019-01-30T09:30:13.434Z,-1.60
2019-01-30T09:32:40.937Z,-1.50
2019-01-30T09:35:10.941Z,-1.50
2019-01-30T09:37:38.498Z,-1.40
2019-01-30T09:40:06.127Z,-1.20
2019-01-30T09:42:33.590Z,-1.20
2019-01-30T09:45:01.115Z,-1.20
2019-01-30T09:47:28.579Z,-1.20
2019-01-30T09:49:56.076Z,-1.10
2019-01-30T09:52:26.951Z,-0.90
2019-01-30T09:54:52.862Z,-0.50
2019-01-30T09:57:20.402Z,0.50
2019-01-30T09:59:47.884Z,-0.70
2019-01-30T10:02:15.477Z,-0.60
2019-01-30T10:04:42.933Z,-0.50
2019-01-30T10:07:10.422Z,-0.50
2019-01-30T10:09:37.918Z,-0.40
2019-01-30T10:12:05.408Z,-0.30
2019-01-30T10:14:32.911Z,-0.30
2019-01-30T10:17:00.496Z,-0.20
2019-01-30T10:19:27.876Z,-0.20
2019-01-30T10:21:55.438Z,-0.10
2019-01-30T10:24:22.953Z,-0.10
2019-01-30T10:26:50.380Z,-0.10
2019-01-30T10:29:17.856Z,-0.10
2019-01-30T10:31:45.557Z,0.10
2019-01-30T10:34:14.443Z,0.10
2019-01-30T10:36:41.924Z,0.00
2019-01-30T10:39:10.161Z,0.00
2019-01-30T10:41:37.629Z,0.00
2019-01-30T10:44:05.133Z,0.00
2019-01-30T10:46:32.636Z,-0.10
2019-01-30T10:49:00.140Z,-0.10
2019-01-30T10:51:27.620Z,-0.10
2019-01-30T10:53:55.127Z,-0.10
2019-01-30T10:56:22.612Z,0.00
2019-01-30T10:58:50.307Z,0.10
2019-01-30T11:01:17.760Z,0.20
2019-01-30T11:03:45.215Z,0.20
2019-01-30T11:06:12.740Z,0.20
2019-01-30T11:08:40.208Z,0.30
2019-01-30T11:11:08.369Z,0.40
2019-01-30T11:13:35.948Z,0.50
2019-01-30T11:16:04.113Z,0.60
2019-01-30T11:18:31.707Z,0.70
2019-01-30T11:20:59.164Z,0.80
2019-01-30T11:23:26.689Z,1.10
2019-01-30T11:25:54.188Z,1.30
2019-01-30T11:28:21.654Z,1.30
2019-01-30T11:30:49.200Z,1.50
2019-01-30T11:33:16.725Z,1.70
2019-01-30T11:35:44.238Z,1.70
2019-01-30T11:38:11.752Z,1.70
2019-01-30T11:40:39.223Z,1.60
2019-01-30T11:43:06.799Z,1.80
2019-01-30T11:45:36.410Z,1.60
2019-01-30T11:48:04.106Z,1.50
2019-01-30T11:50:31.659Z,1.50
2019-01-30T11:52:59.203Z,1.60
2019-01-30T11:55:26.835Z,1.60
2019-01-30T11:57:54.305Z,1.50
2019-01-30T12:00:26.992Z,1.60
2019-01-30T12:02:54.713Z,1.30
2019-01-30T12:05:22.186Z,1.30
2019-01-30T12:07:49.669Z,1.30
2019-01-30T12:10:17.188Z,1.30
2019-01-30T12:12:44.651Z,1.30
2019-01-30T12:15:14.980Z,1.30
2019-01-30T12:17:42.476Z,1.40
2019-01-30T12:20:11.085Z,1.40
2019-01-30T12:22:38.528Z,1.50
2019-01-30T12:25:07.226Z,1.60
2019-01-30T12:27:34.716Z,1.60
2019-01-30T12:30:03.393Z,1.60
2019-01-30T12:32:30.978Z,1.60
2019-01-30T12:34:58.440Z,1.60
2019-01-30T12:37:25.944Z,1.60
2019-01-30T12:39:53.478Z,1.60
2019-01-30T12:42:20.964Z,1.70
2019-01-30T12:44:48.440Z,1.80
2019-01-30T12:47:20.004Z,1.80
2019-01-30T12:49:45.217Z,1.80
2019-01-30T12:52:12.726Z,1.80
2019-01-30T12:54:40.226Z,2.00
2019-01-30T12:57:07.765Z,2.00
2019-01-30T12:59:35.197Z,2.10
2019-01-30T13:02:03.148Z,2.10
2019-01-30T13:04:38.700Z,2.30
2019-01-30T13:06:59.870Z,2.30
2019-01-30T13:09:28.572Z,2.50
2019-01-30T13:11:56.070Z,2.70
2019-01-30T13:14:23.571Z,2.80
2019-01-30T13:16:51.052Z,2.90
2019-01-30T13:19:18.562Z,3.00
2019-01-30T13:21:46.059Z,3.00
2019-01-30T13:24:13.520Z,3.10
2019-01-30T13:26:41.026Z,3.10
2019-01-30T13:29:08.527Z,3.10
2019-01-30T13:31:35.989Z,3.10
2019-01-30T13:34:03.924Z,3.10
2019-01-30T13:36:31.387Z,3.10
2019-01-30T13:38:58.841Z,3.10
2019-01-30T13:41:26.335Z,3.00
2019-01-30T13:43:55.819Z,3.10
2019-01-30T13:46:23.327Z,3.10
2019-01-30T13:48:50.797Z,3.00
2019-01-30T13:51:18.290Z,3.00
2019-01-30T13:53:45.775Z,3.00
2019-01-30T13:56:13.244Z,3.00
2019-01-30T13:58:42.644Z,2.90
2019-01-30T14:01:17.350Z,2.90
2019-01-30T14:03:39.302Z,2.90
2019-01-30T14:06:06.775Z,2.90
2019-01-30T14:08:34.580Z,2.90
2019-01-30T14:11:02.082Z,2.90
2019-01-30T14:13:29.561Z,2.90
2019-01-30T14:15:57.235Z,2.90
2019-01-30T14:18:24.700Z,2.90
2019-01-30T14:20:52.175Z,2.90
2019-01-30T14:23:19.735Z,2.80
2019-01-30T14:25:47.196Z,2.80
2019-01-30T14:28:14.658Z,2.70
2019-01-30T14:30:42.281Z,2.70
2019-01-30T14:33:09.692Z,2.60
2019-01-30T14:35:39.470Z,2.60
2019-01-30T14:38:06.945Z,2.60
2019-01-30T14:40:34.444Z,2.50
2019-01-30T14:43:02.012Z,2.40
2019-01-30T14:45:29.467Z,2.40
2019-01-30T14:47:56.976Z,2.40
2019-01-30T14:50:24.858Z,2.30
2019-01-30T14:52:52.356Z,2.30
2019-01-30T14:55:19.849Z,2.30
2019-01-30T14:57:47.870Z,2.30
2019-01-30T15:00:20.455Z,2.30
2019-01-30T15:02:48.025Z,2.30
2019-01-30T15:05:22.513Z,2.30
2019-01-30T15:07:45.184Z,2.30
2019-01-30T15:10:14.486Z,2.20
2019-01-30T15:12:42.016Z,2.20
2019-01-30T15:15:11.720Z,2.20
2019-01-30T15:17:39.338Z,2.20
2019-01-30T15:20:10.893Z,2.20
2019-01-30T15:22:38.408Z,2.10
2019-01-30T15:25:06.906Z,2.10
2019-01-30T15:27:34.392Z,2.10
2019-01-30T15:30:01.873Z,2.00
2019-01-30T15:32:31.722Z,2.00
2019-01-30T15:34:58.665Z,2.00
2019-01-30T15:37:26.160Z,2.00
2019-01-30T15:39:53.645Z,1.90
2019-01-30T15:42:21.142Z,1.90
2019-01-30T15:44:48.596Z,1.80
2019-01-30T15:47:16.076Z,1.90
2019-01-30T15:49:43.551Z,1.90
2019-01-30T15:52:11.062Z,1.90
2019-01-30T15:54:38.567Z,1.80
2019-01-30T15:57:06.087Z,1.80
2019-01-30T15:59:33.656Z,1.80
2019-01-30T16:02:01.438Z,1.80
2019-01-30T16:04:28.903Z,1.90
2019-01-30T16:06:56.360Z,1.90
2019-01-30T16:09:23.897Z,1.90
2019-01-30T16:11:51.362Z,1.90
2019-01-30T16:14:18.864Z,1.90
2019-01-30T16:16:46.392Z,1.90
2019-01-30T16:19:13.884Z,2.00
2019-01-30T16:21:41.343Z,2.00
2019-01-30T16:24:08.824Z,1.90
2019-01-30T16:26:36.305Z,1.90
2019-01-30T16:29:03.914Z,2.00
2019-01-30T16:31:31.395Z,2.10
2019-01-30T16:33:58.862Z,2.20
2019-01-30T16:36:26.385Z,2.30
2019-01-30T16:38:53.871Z,2.40
2019-01-30T16:41:21.337Z,2.50
2019-01-30T16:43:48.864Z,2.60
2019-01-30T16:46:16.347Z,2.70
2019-01-30T16:48:43.883Z,2.80
2019-01-30T16:51:11.388Z,2.80
2019-01-30T16:53:38.865Z,2.90
2019-01-30T16:56:06.458Z,2.90
2019-01-30T16:58:33.966Z,2.80
2019-01-30T17:01:01.471Z,2.80
2019-01-30T17:03:28.984Z,2.90
2019-01-30T17:06:06.734Z,2.90
2019-01-30T17:08:25.900Z,2.80
2019-01-30T17:10:53.384Z,2.80
2019-01-30T17:13:20.862Z,2.80
2019-01-30T17:15:48.339Z,2.80
2019-01-30T17:18:16.036Z,2.70
2019-01-30T17:20:43.543Z,2.70
2019-01-30T17:23:11.250Z,2.70
2019-01-30T17:25:38.943Z,2.70
2019-01-30T17:28:06.452Z,2.70
2019-01-30T17:30:42.512Z,2.80
2019-01-30T17:33:10.060Z,2.70
2019-01-30T17:35:38.571Z,2.70
2019-01-30T17:38:06.221Z,2.80
2019-01-30T17:45:58.248Z,2.70
2019-01-30T17:48:25.783Z,4.30
2019-01-30T17:50:53.310Z,2.70
2019-01-30T17:53:20.805Z,2.70
2019-01-30T17:55:48.315Z,2.70
2019-01-30T17:58:15.942Z,3.60
2019-01-30T18:00:48.363Z,2.70
2019-01-30T18:03:15.826Z,2.70
2019-01-30T18:05:43.490Z,2.70
2019-01-30T18:08:10.980Z,2.80
2019-01-30T18:10:38.478Z,2.70
2019-01-30T18:13:06.008Z,2.70
2019-01-30T18:15:33.520Z,2.80
2019-01-30T18:18:01.048Z,2.70
2019-01-30T18:20:28.577Z,2.60
2019-01-30T18:22:56.136Z,2.70
2019-01-30T18:25:23.638Z,2.60
2019-01-30T18:27:51.163Z,2.80
2019-01-30T18:30:18.670Z,2.70
2019-01-30T18:32:46.224Z,2.70
2019-01-30T18:35:14.100Z,2.70
2019-01-30T18:37:41.660Z,2.60
2019-01-30T18:40:12.054Z,2.60
2019-01-30T18:42:39.839Z,2.60
2019-01-30T18:45:08.996Z,2.60
2019-01-30T18:47:36.516Z,2.60
2019-01-30T18:50:05.988Z,2.60
2019-01-30T18:52:33.520Z,2.60
2019-01-30T18:55:01.028Z,2.60
2019-01-30T18:57:28.603Z,2.60
2019-01-30T18:59:56.089Z,2.60
2019-01-30T19:02:23.570Z,2.70
2019-01-30T19:04:51.099Z,2.50
2019-01-30T19:07:18.596Z,2.60
2019-01-30T19:09:46.046Z,2.50
2019-01-30T19:12:13.554Z,2.60
2019-01-30T19:14:41.062Z,2.60
2019-01-30T19:17:08.590Z,2.50
2019-01-30T19:19:36.185Z,2.50
2019-01-30T19:22:04.284Z,2.50
2019-01-30T19:24:32.000Z,2.50
2019-01-30T19:26:59.513Z,3.80
2019-01-30T19:29:27.022Z,2.50
2019-01-30T19:31:54.543Z,-0.40
2019-01-30T19:34:22.150Z,3.00
2019-01-30T19:36:49.637Z,2.50
2019-01-30T19:39:17.149Z,2.50
2019-01-30T19:41:44.636Z,2.50
2019-01-30T19:44:12.117Z,2.50
2019-01-30T19:46:39.730Z,2.50
2019-01-30T19:49:07.301Z,2.50
2019-01-30T19:51:34.806Z,2.40
2019-01-30T19:54:02.378Z,2.50
2019-01-30T19:56:30.157Z,2.50
2019-01-30T19:58:57.790Z,2.50
2019-01-30T20:01:35.666Z,2.50
2019-01-30T20:03:54.643Z,2.40
2019-01-30T20:06:22.206Z,2.40
2019-01-30T20:08:49.737Z,2.40
2019-01-30T20:11:17.279Z,2.40
2019-01-30T20:13:44.841Z,2.40
2019-01-30T20:16:12.374Z,2.40
2019-01-30T20:18:39.893Z,2.40
2019-01-30T20:21:07.439Z,2.40
2019-01-30T20:23:34.968Z,2.40
2019-01-30T20:26:02.607Z,2.40
2019-01-30T20:28:30.156Z,2.40
2019-01-30T20:30:57.655Z,2.40
2019-01-30T20:33:25.154Z,2.40
2019-01-30T20:35:52.659Z,2.40
2019-01-30T20:38:20.162Z,2.40
2019-01-30T20:40:47.853Z,2.40
2019-01-30T20:43:15.423Z,2.40
2019-01-30T20:45:42.968Z,2.40
2019-01-30T20:48:10.565Z,2.40
2019-01-30T20:50:38.040Z,2.40
2019-01-30T20:53:05.564Z,2.40
2019-01-30T20:55:33.048Z,2.30
2019-01-30T20:58:01.286Z,2.30
2019-01-30T21:00:35.281Z,2.30
2019-01-30T21:03:02.952Z,2.30
2019-01-30T21:05:30.418Z,2.30
2019-01-30T21:07:57.907Z,2.30
2019-01-30T21:10:28.043Z,2.20
2019-01-30T21:12:55.601Z,2.20
2019-01-30T21:15:23.207Z,2.20
2019-01-30T21:17:50.709Z,2.20
2019-01-30T21:20:18.254Z,2.10
2019-01-30T21:22:45.736Z,2.10
2019-01-30T21:25:15.524Z,2.10
2019-01-30T21:27:43.046Z,2.10
2019-01-30T21:30:12.992Z,2.00
2019-01-30T21:32:40.520Z,2.00
2019-01-30T21:35:08.037Z,2.00
2019-01-30T21:37:35.532Z,2.00
2019-01-30T21:40:04.777Z,2.00
2019-01-30T21:42:32.234Z,2.00
2019-01-30T21:45:00.753Z,1.90
2019-01-30T21:47:28.271Z,2.00
2019-01-30T21:49:55.754Z,1.90
2019-01-30T21:52:23.298Z,2.00
2019-01-30T21:54:50.829Z,1.80
2019-01-30T21:57:18.311Z,1.80
2019-01-30T21:59:45.819Z,1.80
2019-01-30T22:02:13.376Z,1.80
2019-01-30T22:04:41.018Z,1.80
2019-01-30T22:07:08.521Z,1.70
2019-01-30T22:09:36.019Z,1.70
2019-01-30T22:12:04.841Z,1.80
2019-01-30T22:14:32.340Z,1.70
2019-01-30T22:16:59.826Z,1.90
2019-01-30T22:19:27.313Z,1.60
2019-01-30T22:21:54.832Z,1.50
2019-01-30T22:24:22.292Z,1.50
2019-01-30T22:26:49.814Z,1.40
2019-01-30T22:29:17.335Z,1.40
2019-01-30T22:31:44.881Z,1.30
2019-01-30T22:34:13.416Z,1.30
2019-01-30T22:36:41.095Z,1.20
2019-01-30T22:39:08.856Z,1.10
2019-01-30T22:41:36.418Z,0.90
2019-01-30T22:44:03.918Z,0.70
2019-01-30T22:46:31.464Z,0.60
2019-01-30T22:48:58.985Z,0.40
2019-01-30T22:51:26.470Z,0.20
2019-01-30T22:53:53.947Z,0.10
2019-01-30T22:56:21.588Z,0.00
2019-01-30T22:58:49.056Z,-0.10
2019-01-30T23:01:43.932Z,-0.10
2019-01-30T23:05:17.432Z,-0.20
2019-01-30T23:08:22.888Z,-0.30
2019-01-30T23:11:22.184Z,-0.30
2019-01-30T23:13:59.191Z,-0.30
2019-01-30T23:17:14.860Z,-0.30
2019-01-30T23:19:56.119Z,-0.30
2019-01-30T23:22:54.748Z,-0.20
2019-01-30T23:25:43.158Z,-0.20
2019-01-30T23:28:54.071Z,-0.30
2019-01-30T23:31:47.234Z,-0.30
2019-01-30T23:35:02.268Z,-0.40
2019-01-30T23:37:42.059Z,-0.40
2019-01-30T23:40:28.512Z,-0.60
2019-01-30T23:43:46.598Z,-0.60
2019-01-30T23:46:55.692Z,-0.70
2019-01-30T23:50:02.315Z,-0.70
2019-01-30T23:53:10.257Z,-0.70
2019-01-30T23:56:06.595Z,-0.80
2019-01-30T23:59:04.922Z,-0.80
